createdAt,value
2019-01-03T00:01:45.055Z,6.07
2019-01-03T00:04:17.723Z,5.90
2019-01-03T00:07:04.243Z,5.90
2019-01-03T00:09:43.255Z,5.20
2019-01-03T00:12:29.558Z,6.97
2019-01-03T00:15:11.397Z,6.50
2019-01-03T00:17:47.976Z,5.50
2019-01-03T00:20:21.554Z,6.00
2019-01-03T00:23:00.758Z,5.00
2019-01-03T00:25:47.598Z,5.53
2019-01-03T00:28:18.070Z,6.20
2019-01-03T00:30:54.118Z,5.90
2019-01-03T00:33:39.399Z,6.70
2019-01-03T00:36:12.427Z,6.57
2019-01-03T00:38:42.466Z,5.80
2019-01-03T00:41:24.782Z,6.30
2019-01-03T00:44:07.449Z,6.33
2019-01-03T00:46:46.676Z,5.83
2019-01-03T00:49:26.011Z,5.53
2019-01-03T00:52:05.058Z,5.30
2019-01-03T00:54:41.127Z,4.70
2019-01-03T00:57:27.508Z,5.13
2019-01-03T01:00:12.680Z,6.23
2019-01-03T01:02:42.738Z,6.17
2019-01-03T01:05:19.185Z,7.23
2019-01-03T01:07:49.575Z,6.33
2019-01-03T01:10:36.512Z,6.27
2019-01-03T01:13:22.510Z,5.33
2019-01-03T01:15:55.463Z,4.90
2019-01-03T01:18:31.168Z,4.70
2019-01-03T01:21:05.040Z,6.03
2019-01-03T01:23:50.279Z,4.20
2019-01-03T01:26:32.101Z,3.90
2019-01-03T01:29:17.191Z,4.10
2019-01-03T01:31:49.740Z,3.97
2019-01-03T01:34:31.739Z,4.30
2019-01-03T01:37:07.816Z,4.00
2019-01-03T01:39:38.035Z,4.50
2019-01-03T01:42:20.066Z,4.13
2019-01-03T01:44:50.126Z,4.20
2019-01-03T01:47:29.140Z,4.63
2019-01-03T01:50:04.887Z,6.33
2019-01-03T01:52:53.375Z,7.40
2019-01-03T01:55:26.574Z,7.03
2019-01-03T01:58:12.963Z,4.70
2019-01-03T02:00:43.140Z,5.03
2019-01-03T02:03:28.426Z,4.10
2019-01-03T02:06:15.295Z,4.60
2019-01-03T02:08:51.190Z,5.70
2019-01-03T02:11:37.487Z,5.20
2019-01-03T02:14:24.191Z,4.77
2019-01-03T02:17:10.655Z,4.60
2019-01-03T02:19:43.984Z,6.90
2019-01-03T02:22:27.039Z,5.97
2019-01-03T02:24:57.529Z,5.20
2019-01-03T02:27:27.563Z,6.63
2019-01-03T02:29:57.901Z,5.53
2019-01-03T02:32:45.974Z,5.23
2019-01-03T02:35:24.751Z,4.70
2019-01-03T02:38:00.927Z,3.77
2019-01-03T02:40:30.993Z,4.60
2019-01-03T02:43:19.642Z,3.60
2019-01-03T02:45:52.736Z,4.47
2019-01-03T02:48:25.977Z,3.97
2019-01-03T02:51:12.541Z,4.50
2019-01-03T02:54:00.424Z,4.47
2019-01-03T02:56:33.563Z,6.10
2019-01-03T02:59:03.599Z,4.13
2019-01-03T03:01:36.479Z,7.87
2019-01-03T03:04:09.480Z,3.80
2019-01-03T03:06:51.736Z,7.17
2019-01-03T03:09:36.911Z,3.90
2019-01-03T03:12:07.149Z,4.30
2019-01-03T03:14:52.319Z,4.30
2019-01-03T03:17:38.798Z,3.73
2019-01-03T03:20:25.031Z,4.50
2019-01-03T03:23:01.236Z,5.57
2019-01-03T03:25:44.741Z,5.10
2019-01-03T03:28:14.768Z,4.50
2019-01-03T03:30:47.836Z,6.03
2019-01-03T03:33:18.227Z,6.70
2019-01-03T03:36:06.585Z,4.73
2019-01-03T03:38:52.719Z,4.57
2019-01-03T03:41:35.179Z,4.63
2019-01-03T03:44:17.672Z,4.30
2019-01-03T03:47:04.167Z,3.63
2019-01-03T03:49:37.175Z,3.33
2019-01-03T03:52:23.336Z,4.27
2019-01-03T03:54:53.476Z,4.10
2019-01-03T03:57:23.452Z,4.53
2019-01-03T03:59:53.773Z,4.50
2019-01-03T04:02:40.248Z,6.47
2019-01-03T04:05:25.378Z,6.63
2019-01-03T04:07:55.467Z,5.00
2019-01-03T04:10:25.800Z,5.57
2019-01-03T04:13:01.689Z,4.67
2019-01-03T04:15:37.788Z,5.37
2019-01-03T04:18:24.701Z,4.90
2019-01-03T04:21:06.739Z,5.53
2019-01-03T04:23:36.870Z,4.60
2019-01-03T04:26:10.712Z,4.23
2019-01-03T04:28:57.139Z,5.33
2019-01-03T04:31:43.572Z,3.90
2019-01-03T04:34:16.737Z,4.70
2019-01-03T04:36:52.462Z,3.60
2019-01-03T04:39:38.724Z,4.47
2019-01-03T04:42:25.224Z,4.97
2019-01-03T04:45:04.452Z,4.57
2019-01-03T04:47:50.876Z,4.27
2019-01-03T04:50:29.979Z,4.07
2019-01-03T04:53:16.632Z,3.53
2019-01-03T04:55:58.996Z,3.80
2019-01-03T04:58:31.825Z,3.50
2019-01-03T05:01:55.078Z,3.13
2019-01-03T05:04:25.410Z,3.97
2019-01-03T05:07:07.475Z,3.90
2019-01-03T05:09:54.255Z,4.10
2019-01-03T05:12:27.094Z,6.03
2019-01-03T05:15:06.087Z,5.57
2019-01-03T05:17:48.104Z,5.07
2019-01-03T05:20:33.452Z,4.63
2019-01-03T05:23:19.856Z,4.60
2019-01-03T05:25:49.923Z,4.50
2019-01-03T05:28:37.568Z,4.80
2019-01-03T05:31:24.098Z,5.53
2019-01-03T05:34:11.115Z,5.23
2019-01-03T05:36:47.394Z,4.53
2019-01-03T05:39:17.814Z,5.10
2019-01-03T05:41:50.720Z,4.77
2019-01-03T05:44:32.442Z,3.87
2019-01-03T05:47:05.668Z,6.20
2019-01-03T05:49:41.764Z,5.93
2019-01-03T05:52:11.856Z,6.43
2019-01-03T05:54:51.097Z,5.50
2019-01-03T05:57:39.627Z,5.47
2019-01-03T06:00:13.426Z,6.30
2019-01-03T06:02:46.354Z,4.60
2019-01-03T06:05:28.845Z,4.47
2019-01-03T06:07:58.880Z,3.70
2019-01-03T06:10:28.899Z,3.20
2019-01-03T06:12:59.068Z,3.80
2019-01-03T06:15:32.087Z,3.70
2019-01-03T06:18:17.446Z,3.73
2019-01-03T06:20:47.470Z,3.47
2019-01-03T06:23:35.925Z,3.93
2019-01-03T06:26:14.814Z,5.73
2019-01-03T06:28:58.664Z,5.57
2019-01-03T06:31:37.568Z,4.40
2019-01-03T06:34:25.798Z,5.47
2019-01-03T06:36:58.567Z,3.50
2019-01-03T06:39:45.139Z,6.00
2019-01-03T06:42:18.388Z,5.70
2019-01-03T06:44:48.529Z,11.67
2019-01-03T06:47:21.441Z,4.00
2019-01-03T06:49:54.501Z,8.10
2019-01-03T06:52:24.523Z,8.10
2019-01-03T06:55:11.200Z,7.87
2019-01-03T06:57:53.560Z,4.93
2019-01-03T07:00:26.502Z,6.50
2019-01-03T07:03:03.003Z,5.30
2019-01-03T07:05:51.299Z,3.83
2019-01-03T07:08:27.319Z,4.27
2019-01-03T07:11:09.387Z,7.73
2019-01-03T07:13:42.317Z,7.23
2019-01-03T07:16:12.535Z,5.47
2019-01-03T07:18:45.169Z,4.40
2019-01-03T07:21:31.187Z,3.77
2019-01-03T07:24:01.872Z,5.27
2019-01-03T07:26:48.996Z,6.50
2019-01-03T07:29:29.390Z,7.47
2019-01-03T07:32:05.672Z,6.40
2019-01-03T07:34:52.174Z,5.77
2019-01-03T07:37:25.196Z,10.17
2019-01-03T07:39:55.419Z,17.00
2019-01-03T07:42:41.866Z,5.20
2019-01-03T07:45:20.550Z,4.73
2019-01-03T07:47:59.793Z,5.70
2019-01-03T07:50:47.753Z,4.93
2019-01-03T07:53:17.776Z,4.03
2019-01-03T07:55:51.029Z,5.23
2019-01-03T07:58:23.786Z,4.53
2019-01-03T08:00:56.819Z,7.37
2019-01-03T08:03:26.919Z,5.83
2019-01-03T08:06:00.274Z,5.60
2019-01-03T08:08:46.917Z,11.30
2019-01-03T08:11:33.435Z,4.03
2019-01-03T08:14:20.134Z,8.77
2019-01-03T08:17:04.033Z,5.13
2019-01-03T08:19:39.709Z,5.53
2019-01-03T08:22:15.793Z,6.40
2019-01-03T08:24:54.746Z,5.00
2019-01-03T08:27:41.064Z,7.47
2019-01-03T08:30:15.216Z,10.30
2019-01-03T08:32:45.302Z,7.53
2019-01-03T08:35:17.130Z,7.53
2019-01-03T08:38:06.745Z,8.90
2019-01-03T08:40:46.992Z,6.50
2019-01-03T08:43:27.167Z,7.30
2019-01-03T08:46:01.154Z,6.33
2019-01-03T08:48:47.568Z,5.20
2019-01-03T08:51:17.988Z,6.83
2019-01-03T08:54:05.135Z,7.73
2019-01-03T08:56:35.235Z,7.23
2019-01-03T08:59:24.329Z,5.93
2019-01-03T09:02:03.306Z,6.67
2019-01-03T09:04:36.317Z,9.87
2019-01-03T09:07:24.386Z,15.90
2019-01-03T09:10:09.974Z,7.73
2019-01-03T09:12:42.726Z,12.20
2019-01-03T09:15:29.257Z,7.13
2019-01-03T09:18:02.455Z,7.60
2019-01-03T09:20:32.520Z,5.67
2019-01-03T09:23:08.895Z,5.97
2019-01-03T09:25:51.258Z,23.13
2019-01-03T09:28:27.331Z,9.83
2019-01-03T09:31:13.661Z,22.47
2019-01-03T09:33:59.855Z,33.53
2019-01-03T09:36:35.800Z,10.30
2019-01-03T09:39:07.993Z,10.40
2019-01-03T09:41:54.254Z,9.67
2019-01-03T09:44:27.426Z,8.90
2019-01-03T09:46:55.903Z,10.20
2019-01-03T09:49:27.872Z,12.67
2019-01-03T09:51:56.534Z,7.97
2019-01-03T09:54:25.278Z,12.30
2019-01-03T09:56:53.706Z,10.37
2019-01-03T09:59:22.450Z,7.50
2019-01-03T10:01:51.113Z,8.60
2019-01-03T10:04:19.609Z,9.47
2019-01-03T10:06:48.170Z,7.70
2019-01-03T10:09:20.317Z,23.80
2019-01-03T10:11:52.980Z,29.40
2019-01-03T10:14:24.117Z,40.63
2019-01-03T10:16:54.287Z,24.90
2019-01-03T10:19:23.144Z,16.40
2019-01-03T10:21:51.602Z,12.80
2019-01-03T10:24:20.007Z,12.33
2019-01-03T10:26:49.082Z,22.27
2019-01-03T10:29:18.685Z,11.60
2019-01-03T10:31:48.377Z,7.97
2019-01-03T10:34:17.400Z,7.47
2019-01-03T10:36:45.870Z,7.60
2019-01-03T10:39:15.269Z,7.87
2019-01-03T10:41:43.860Z,9.20
2019-01-03T10:44:12.691Z,7.73
2019-01-03T10:46:42.475Z,12.63
2019-01-03T10:49:11.559Z,7.17
2019-01-03T10:51:40.111Z,20.07
2019-01-03T10:54:08.819Z,14.97
2019-01-03T10:56:37.639Z,11.00
2019-01-03T10:59:06.210Z,12.73
2019-01-03T11:01:34.635Z,9.70
2019-01-03T11:04:03.468Z,15.77
2019-01-03T11:06:32.560Z,11.43
2019-01-03T11:09:02.058Z,36.43
2019-01-03T11:11:32.380Z,24.00
2019-01-03T11:14:01.881Z,72.67
2019-01-03T11:16:30.633Z,52.97
2019-01-03T11:19:00.086Z,31.43
2019-01-03T11:21:29.233Z,42.77
2019-01-03T11:23:59.819Z,47.13
2019-01-03T11:26:29.916Z,47.90
2019-01-03T11:28:58.323Z,36.63
2019-01-03T11:31:26.895Z,121.70
2019-01-03T11:33:58.154Z,105.00
2019-01-03T11:36:27.897Z,33.80
2019-01-03T11:38:56.910Z,30.83
2019-01-03T11:41:26.017Z,23.00
2019-01-03T11:43:54.611Z,35.10
2019-01-03T11:46:23.191Z,16.97
2019-01-03T11:48:51.787Z,15.07
2019-01-03T11:51:21.626Z,25.23
2019-01-03T11:53:50.124Z,28.93
2019-01-03T11:56:18.841Z,31.83
2019-01-03T11:58:47.852Z,74.93
2019-01-03T12:01:16.405Z,51.33
2019-01-03T12:03:45.264Z,38.93
2019-01-03T12:06:17.085Z,43.63
2019-01-03T12:08:46.002Z,58.27
2019-01-03T12:11:14.802Z,64.37
2019-01-03T12:13:43.236Z,41.37
2019-01-03T12:16:12.293Z,44.43
2019-01-03T12:18:41.530Z,75.50
2019-01-03T12:21:10.531Z,51.40
2019-01-03T12:23:39.186Z,41.53
2019-01-03T12:26:07.647Z,51.53
2019-01-03T12:28:36.563Z,52.97
2019-01-03T12:31:05.458Z,21.50
2019-01-03T12:33:34.373Z,36.83
2019-01-03T12:36:04.307Z,24.53
2019-01-03T12:38:32.873Z,24.03
2019-01-03T12:41:02.337Z,14.83
2019-01-03T12:43:31.090Z,16.63
2019-01-03T12:45:59.680Z,16.10
2019-01-03T12:48:28.115Z,19.80
2019-01-03T12:50:56.758Z,22.73
2019-01-03T12:53:25.431Z,21.67
2019-01-03T12:55:54.040Z,29.47
2019-01-03T12:58:22.507Z,21.17
2019-01-03T13:00:51.371Z,19.53
2019-01-03T13:03:20.128Z,32.17
2019-01-03T13:05:48.592Z,21.27
2019-01-03T13:08:16.993Z,21.60
2019-01-03T13:10:45.609Z,13.67
2019-01-03T13:13:14.237Z,8.77
2019-01-03T13:15:42.705Z,21.60
2019-01-03T13:18:11.682Z,44.40
2019-01-03T13:20:40.459Z,25.23
2019-01-03T13:23:08.869Z,5.63
2019-01-03T13:25:37.944Z,9.67
2019-01-03T13:28:06.345Z,11.47
2019-01-03T13:30:34.729Z,7.07
2019-01-03T13:33:03.710Z,7.80
2019-01-03T13:35:32.180Z,15.50
2019-01-03T13:38:01.628Z,9.17
2019-01-03T13:40:30.316Z,7.53
2019-01-03T13:43:01.476Z,8.77
2019-01-03T13:45:29.899Z,7.03
2019-01-03T13:47:58.836Z,7.63
2019-01-03T13:50:27.238Z,10.90
2019-01-03T13:52:55.782Z,11.33
2019-01-03T13:55:24.463Z,12.43
2019-01-03T13:57:53.154Z,14.77
2019-01-03T14:00:21.669Z,7.90
2019-01-03T14:02:50.397Z,7.47
2019-01-03T14:05:19.321Z,32.83
2019-01-03T14:07:48.297Z,40.37
2019-01-03T14:10:18.247Z,118.93
2019-01-03T14:12:46.748Z,27.30
2019-01-03T14:15:15.685Z,117.20
2019-01-03T14:17:44.647Z,118.50
2019-01-03T14:20:13.532Z,19.43
2019-01-03T14:22:42.112Z,60.90
2019-01-03T14:25:11.215Z,102.83
2019-01-03T14:27:39.748Z,53.10
2019-01-03T14:30:09.535Z,89.13
2019-01-03T14:32:38.829Z,45.17
2019-01-03T14:35:07.201Z,99.60
2019-01-03T14:37:36.048Z,70.33
2019-01-03T14:40:07.604Z,21.40
2019-01-03T14:42:36.143Z,29.13
2019-01-03T14:45:05.898Z,25.37
2019-01-03T14:47:35.243Z,21.07
2019-01-03T14:50:05.791Z,10.97
2019-01-03T14:52:34.859Z,32.60
2019-01-03T14:55:04.366Z,27.40
2019-01-03T14:57:36.526Z,28.10
2019-01-03T15:00:11.629Z,18.93
2019-01-03T15:02:42.490Z,12.57
2019-01-03T15:05:14.052Z,12.43
2019-01-03T15:07:45.247Z,36.40
2019-01-03T15:10:17.872Z,26.70
2019-01-03T15:12:48.470Z,35.57
2019-01-03T15:15:21.174Z,89.03
2019-01-03T15:17:51.553Z,56.23
2019-01-03T15:20:25.633Z,37.43
2019-01-03T15:22:56.556Z,25.33
2019-01-03T15:25:25.305Z,31.80
2019-01-03T15:27:55.528Z,16.47
2019-01-03T15:30:25.125Z,12.60
2019-01-03T15:32:55.084Z,9.40
2019-01-03T15:35:26.801Z,22.80
2019-01-03T15:37:57.686Z,17.73
2019-01-03T15:40:27.571Z,14.63
2019-01-03T15:42:58.093Z,20.50
2019-01-03T15:45:27.183Z,41.27
2019-01-03T15:47:56.068Z,37.20
2019-01-03T15:50:26.370Z,20.67
2019-01-03T15:52:56.042Z,28.43
2019-01-03T15:55:26.039Z,48.57
2019-01-03T15:57:56.426Z,21.60
2019-01-03T16:00:25.349Z,26.93
2019-01-03T16:02:57.919Z,30.40
2019-01-03T16:05:29.586Z,35.77
2019-01-03T16:07:58.311Z,23.23
2019-01-03T16:10:31.200Z,32.83
2019-01-03T16:13:05.734Z,34.93
2019-01-03T16:15:35.741Z,18.20
2019-01-03T16:18:05.383Z,13.87
2019-01-03T16:20:34.341Z,18.10
2019-01-03T16:23:03.551Z,17.73
2019-01-03T16:25:32.103Z,33.50
2019-01-03T16:28:02.130Z,74.47
2019-01-03T16:30:31.333Z,30.80
2019-01-03T16:32:59.931Z,22.73
2019-01-03T16:35:30.683Z,71.03
2019-01-03T16:38:03.169Z,26.57
2019-01-03T16:40:33.154Z,24.90
2019-01-03T16:43:03.881Z,34.53
2019-01-03T16:45:37.747Z,39.80
2019-01-03T16:48:06.694Z,33.67
2019-01-03T16:50:36.796Z,59.90
2019-01-03T16:53:08.386Z,33.40
2019-01-03T16:55:41.169Z,26.57
2019-01-03T16:58:10.490Z,35.83
2019-01-03T17:00:39.900Z,33.67
2019-01-03T17:03:09.833Z,62.63
2019-01-03T17:05:39.798Z,45.07
2019-01-03T17:08:11.254Z,23.93
2019-01-03T17:10:39.349Z,22.03
2019-01-03T17:13:12.608Z,58.97
2019-01-03T17:15:41.382Z,12.17
2019-01-03T17:18:12.442Z,20.67
2019-01-03T17:20:41.022Z,18.17
2019-01-03T17:23:10.911Z,7.83
2019-01-03T17:25:43.406Z,11.13
2019-01-03T17:28:12.111Z,13.77
2019-01-03T17:30:40.721Z,42.67
2019-01-03T17:33:13.017Z,32.27
2019-01-03T17:35:45.476Z,17.23
2019-01-03T17:38:14.406Z,28.80
2019-01-03T17:40:44.480Z,25.33
2019-01-03T17:43:13.785Z,44.43
2019-01-03T17:45:43.102Z,18.10
2019-01-03T17:48:13.968Z,25.03
2019-01-03T17:50:50.731Z,18.13
2019-01-03T17:53:20.199Z,41.33
2019-01-03T17:55:48.932Z,25.37
2019-01-03T17:58:20.216Z,51.20
2019-01-03T18:00:54.495Z,46.50
2019-01-03T18:03:27.239Z,33.27
2019-01-03T18:05:59.962Z,29.30
2019-01-03T18:08:30.388Z,57.77
2019-01-03T18:11:00.510Z,27.20
2019-01-03T18:13:30.307Z,23.27
2019-01-03T18:16:01.101Z,29.53
2019-01-03T18:18:29.920Z,23.03
2019-01-03T18:21:06.133Z,55.40
2019-01-03T18:23:35.777Z,37.60
2019-01-03T18:26:06.285Z,48.90
2019-01-03T18:28:37.353Z,39.03
2019-01-03T18:31:11.748Z,15.43
2019-01-03T18:33:40.558Z,43.30
2019-01-03T18:36:09.502Z,50.63
2019-01-03T18:38:41.980Z,64.30
2019-01-03T18:41:12.373Z,28.87
2019-01-03T18:43:41.460Z,24.97
2019-01-03T18:46:19.369Z,21.37
2019-01-03T18:48:55.112Z,29.47
2019-01-03T18:51:30.167Z,20.60
2019-01-03T18:53:58.944Z,41.20
2019-01-03T18:56:27.749Z,28.07
2019-01-03T18:58:56.929Z,17.67
2019-01-03T19:01:25.574Z,33.87
2019-01-03T19:03:54.248Z,37.47
2019-01-03T19:06:23.968Z,16.47
2019-01-03T19:08:52.787Z,17.53
2019-01-03T19:11:22.191Z,28.53
2019-01-03T19:13:52.538Z,26.67
2019-01-03T19:16:21.551Z,71.47
2019-01-03T19:18:50.440Z,54.17
2019-01-03T19:21:19.461Z,114.43
2019-01-03T19:23:48.243Z,33.67
2019-01-03T19:26:18.695Z,24.80
2019-01-03T19:28:47.865Z,64.43
2019-01-03T19:31:16.753Z,40.00
2019-01-03T19:33:45.909Z,54.30
2019-01-03T19:36:14.537Z,33.13
2019-01-03T19:38:43.009Z,24.03
2019-01-03T19:41:11.659Z,42.20
2019-01-03T19:43:40.526Z,40.00
2019-01-03T19:46:09.003Z,19.33
2019-01-03T19:48:37.486Z,19.93
2019-01-03T19:51:07.266Z,19.73
2019-01-03T19:53:35.740Z,13.63
2019-01-03T19:56:04.449Z,7.87
2019-01-03T19:58:33.428Z,10.47
2019-01-03T20:01:02.118Z,9.70
2019-01-03T20:03:30.624Z,23.43
2019-01-03T20:05:59.316Z,18.57
2019-01-03T20:08:28.395Z,14.03
2019-01-03T20:10:57.039Z,15.77
2019-01-03T20:13:25.717Z,17.37
2019-01-03T20:15:54.585Z,10.43
2019-01-03T20:18:23.249Z,18.03
2019-01-03T20:20:53.083Z,16.20
2019-01-03T20:23:21.812Z,15.43
2019-01-03T20:25:50.558Z,14.10
2019-01-03T20:28:19.365Z,24.27
2019-01-03T20:30:48.096Z,28.63
2019-01-03T20:33:16.836Z,38.90
2019-01-03T20:35:45.549Z,24.27
2019-01-03T20:38:14.265Z,26.17
2019-01-03T20:40:42.827Z,27.77
2019-01-03T20:43:11.347Z,22.10
2019-01-03T20:45:40.026Z,28.63
2019-01-03T20:48:08.801Z,17.23
2019-01-03T20:50:37.313Z,9.23
2019-01-03T20:53:06.858Z,11.80
2019-01-03T20:55:35.843Z,18.87
2019-01-03T20:58:04.578Z,19.07
2019-01-03T21:00:33.082Z,34.63
2019-01-03T21:03:01.642Z,43.73
2019-01-03T21:05:30.494Z,25.63
2019-01-03T21:07:59.127Z,10.83
2019-01-03T21:10:27.820Z,24.37
2019-01-03T21:12:56.349Z,26.97
2019-01-03T21:15:25.467Z,13.27
2019-01-03T21:17:53.998Z,18.80
2019-01-03T21:20:23.113Z,13.27
2019-01-03T21:22:51.654Z,26.17
2019-01-03T21:25:20.575Z,17.23
2019-01-03T21:27:50.054Z,25.20
2019-01-03T21:30:19.412Z,21.20
2019-01-03T21:32:48.240Z,27.87
2019-01-03T21:35:17.140Z,22.60
2019-01-03T21:37:45.678Z,13.97
2019-01-03T21:40:16.257Z,52.03
2019-01-03T21:42:44.989Z,29.73
2019-01-03T21:45:13.854Z,27.43
2019-01-03T21:47:42.884Z,27.13
2019-01-03T21:50:11.962Z,24.03
2019-01-03T21:52:40.557Z,23.60
2019-01-03T21:55:10.208Z,24.97
2019-01-03T21:57:39.000Z,17.33
2019-01-03T22:00:09.955Z,27.57
2019-01-03T22:02:38.369Z,23.77
2019-01-03T22:05:06.970Z,14.30
2019-01-03T22:07:36.123Z,14.73
2019-01-03T22:10:07.554Z,31.00
2019-01-03T22:12:36.443Z,24.00
2019-01-03T22:15:06.793Z,11.50
2019-01-03T22:17:35.668Z,28.90
2019-01-03T22:20:05.143Z,32.43
2019-01-03T22:22:33.646Z,41.93
2019-01-03T22:25:02.490Z,32.23
2019-01-03T22:27:31.019Z,19.70
2019-01-03T22:29:59.680Z,15.17
2019-01-03T22:32:29.974Z,25.30
2019-01-03T22:34:58.427Z,23.90
2019-01-03T22:37:27.011Z,19.70
2019-01-03T22:39:55.496Z,19.10
2019-01-03T22:42:24.304Z,25.07
2019-01-03T22:44:54.198Z,17.77
2019-01-03T22:47:23.015Z,16.63
2019-01-03T22:49:51.738Z,15.07
2019-01-03T22:52:20.132Z,10.77
2019-01-03T22:54:48.564Z,9.03
2019-01-03T22:57:18.154Z,11.53
2019-01-03T22:59:46.714Z,8.63
2019-01-03T23:02:15.476Z,17.90
2019-01-03T23:04:49.122Z,10.17
2019-01-03T23:07:14.609Z,8.93
2019-01-03T23:09:43.150Z,9.50
2019-01-03T23:12:12.022Z,9.23
2019-01-03T23:14:40.420Z,9.63
2019-01-03T23:17:08.829Z,9.40
2019-01-03T23:19:37.255Z,9.73
2019-01-03T23:22:05.689Z,8.40
2019-01-03T23:24:34.109Z,7.77
2019-01-03T23:27:03.875Z,10.30
2019-01-03T23:29:32.267Z,28.20
2019-01-03T23:32:00.935Z,12.13
2019-01-03T23:34:29.719Z,7.47
2019-01-03T23:36:58.118Z,10.07
2019-01-03T23:39:26.516Z,10.23
2019-01-03T23:41:54.952Z,9.00
2019-01-03T23:44:23.505Z,7.47
2019-01-03T23:46:52.126Z,7.53
2019-01-03T23:49:20.564Z,24.93
2019-01-03T23:51:48.962Z,15.27
2019-01-03T23:54:17.362Z,10.37
2019-01-03T23:56:45.992Z,10.17
2019-01-03T23:59:15.507Z,12.10
